sensor_id;sensor_type;location;lat;lon;timestamp;pressure;altitude;pressure_sealevel;temperature;humidity
7668;BME280;3876;42.204;24.686;2022-11-14T00:01:59;100628.09;;;7.03;100.00
7668;BME280;3876;42.204;24.686;2022-11-14T00:04:26;100615.38;;;7.04;100.00
7668;BME280;3876;42.204;24.686;2022-11-14T00:06:53;100625.59;;;7.13;100.00
7668;BME280;3876;42.204;24.686;2022-11-14T00:09:25;100623.03;;;7.18;100.00
7668;BME280;3876;42.204;24.686;2022-11-14T00:11:52;100608.59;;;7.21;100.00
7668;BME280;3876;42.204;24.686;2022-11-14T00:14:19;100611.16;;;7.24;100.00
7668;BME280;3876;42.204;24.686;2022-11-14T00:16:46;100600.97;;;7.26;100.00
7668;BME280;3876;42.204;24.686;2022-11-14T00:19:13;100606.94;;;7.29;100.00
7668;BME280;3876;42.204;24.686;2022-11-14T00:21:39;100604.38;;;7.31;100.00
7668;BME280;3876;42.204;24.686;2022-11-14T00:24:06;100605.22;;;7.28;100.00
7668;BME280;3876;42.204;24.686;2022-11-14T00:26:35;100601.81;;;7.25;100.00
7668;BME280;3876;42.204;24.686;2022-11-14T00:29:02;100599.25;;;7.19;100.00
7668;BME280;3876;42.204;24.686;2022-11-14T00:31:28;100599.22;;;7.17;100.00
7668;BME280;3876;42.204;24.686;2022-11-14T00:33:55;100600.09;;;7.16;100.00
7668;BME280;3876;42.204;24.686;2022-11-14T00:36:22;100606.03;;;7.11;100.00
7668;BME280;3876;42.204;24.686;2022-11-14T00:38:51;100601.75;;;7.08;100.00
7668;BME280;3876;42.204;24.686;2022-11-14T00:41:18;100603.47;;;7.09;100.00
7668;BME280;3876;42.204;24.686;2022-11-14T00:43:46;100588.16;;;6.97;100.00
7668;BME280;3876;42.204;24.686;2022-11-14T00:46:13;100594.94;;;6.98;100.00
7668;BME280;3876;42.204;24.686;2022-11-14T00:48:40;100579.63;;;6.92;100.00
7668;BME280;3876;42.204;24.686;2022-11-14T00:51:07;100599.22;;;7.04;100.00
7668;BME280;3876;42.204;24.686;2022-11-14T00:53:34;100560.94;;;6.90;100.00
7668;BME280;3876;42.204;24.686;2022-11-14T00:56:02;100589.00;;;7.02;100.00
7668;BME280;3876;42.204;24.686;2022-11-14T00:58:28;100583.03;;;6.96;100.00
7668;BME280;3876;42.204;24.686;2022-11-14T01:00:57;100582.16;;;6.92;100.00
7668;BME280;3876;42.204;24.686;2022-11-14T01:03:23;100580.47;;;6.93;100.00
7668;BME280;3876;42.204;24.686;2022-11-14T01:05:50;100577.94;;;6.88;100.00
7668;BME280;3876;42.204;24.686;2022-11-14T01:08:18;100563.47;;;6.84;100.00
7668;BME280;3876;42.204;24.686;2022-11-14T01:10:46;100577.94;;;6.91;100.00
7668;BME280;3876;42.204;24.686;2022-11-14T01:13:14;100576.22;;;6.90;100.00
7668;BME280;3876;42.204;24.686;2022-11-14T01:15:44;100572.84;;;6.91;100.00
7668;BME280;3876;42.204;24.686;2022-11-14T01:18:15;100571.97;;;6.95;100.00
7668;BME280;3876;42.204;24.686;2022-11-14T01:20:45;100572.00;;;6.94;100.00
7668;BME280;3876;42.204;24.686;2022-11-14T01:23:14;100563.47;;;6.93;100.00
7668;BME280;3876;42.204;24.686;2022-11-14T01:25:42;100570.28;;;6.94;100.00
7668;BME280;3876;42.204;24.686;2022-11-14T01:28:12;100558.38;;;6.90;100.00
7668;BME280;3876;42.204;24.686;2022-11-14T01:30:40;100562.63;;;6.88;100.00
7668;BME280;3876;42.204;24.686;2022-11-14T01:33:07;100554.94;;;6.85;100.00
7668;BME280;3876;42.204;24.686;2022-11-14T01:35:36;100543.00;;;6.70;100.00
7668;BME280;3876;42.204;24.686;2022-11-14T01:38:04;100557.47;;;6.79;100.00
7668;BME280;3876;42.204;24.686;2022-11-14T01:40:31;100554.09;;;6.78;100.00
7668;BME280;3876;42.204;24.686;2022-11-14T01:43:23;100552.38;;;6.79;100.00
7668;BME280;3876;42.204;24.686;2022-11-14T01:45:53;100544.72;;;6.74;100.00
7668;BME280;3876;42.204;24.686;2022-11-14T01:48:23;100558.34;;;6.79;100.00
7668;BME280;3876;42.204;24.686;2022-11-14T01:50:57;100554.06;;;6.74;100.00
7668;BME280;3876;42.204;24.686;2022-11-14T01:53:24;100550.69;;;6.75;100.00
7668;BME280;3876;42.204;24.686;2022-11-14T01:55:53;100547.25;;;6.73;100.00
7668;BME280;3876;42.204;24.686;2022-11-14T01:58:22;100541.28;;;6.66;100.00
7668;BME280;3876;42.204;24.686;2022-11-14T02:00:49;100543.84;;;6.68;100.00
7668;BME280;3876;42.204;24.686;2022-11-14T02:03:16;100550.63;;;6.66;100.00
7668;BME280;3876;42.204;24.686;2022-11-14T02:05:45;100556.59;;;6.62;100.00
7668;BME280;3876;42.204;24.686;2022-11-14T02:08:15;100560.78;;;6.54;100.00
7668;BME280;3876;42.204;24.686;2022-11-14T02:10:42;100543.75;;;6.50;100.00
7668;BME280;3876;42.204;24.686;2022-11-14T02:13:09;100550.53;;;6.45;100.00
7668;BME280;3876;42.204;24.686;2022-11-14T02:15:36;100542.88;;;6.43;100.00
7668;BME280;3876;42.204;24.686;2022-11-14T02:18:03;100536.09;;;6.39;100.00
7668;BME280;3876;42.204;24.686;2022-11-14T02:20:35;100533.53;;;6.38;100.00
7668;BME280;3876;42.204;24.686;2022-11-14T02:23:02;100523.28;;;6.27;100.00
7668;BME280;3876;42.204;24.686;2022-11-14T02:25:29;100533.50;;;6.34;100.00
7668;BME280;3876;42.204;24.686;2022-11-14T02:27:57;100533.50;;;6.34;100.00
7668;BME280;3876;42.204;24.686;2022-11-14T02:30:25;100539.44;;;6.32;100.00
7668;BME280;3876;42.204;24.686;2022-11-14T02:32:52;100534.31;;;6.27;100.00
7668;BME280;3876;42.204;24.686;2022-11-14T02:35:19;100531.75;;;6.24;100.00
7668;BME280;3876;42.204;24.686;2022-11-14T02:37:47;100526.66;;;6.24;100.00
7668;BME280;3876;42.204;24.686;2022-11-14T02:40:14;100519.84;;;6.20;100.00
7668;BME280;3876;42.204;24.686;2022-11-14T02:42:41;100533.44;;;6.19;100.00
7668;BME280;3876;42.204;24.686;2022-11-14T02:45:08;100525.75;;;6.15;100.00
7668;BME280;3876;42.204;24.686;2022-11-14T02:47:36;100529.19;;;6.14;100.00
7668;BME280;3876;42.204;24.686;2022-11-14T02:50:03;100486.59;;;5.87;100.00
7668;BME280;3876;42.204;24.686;2022-11-14T02:52:30;100526.59;;;6.09;100.00
7668;BME280;3876;42.204;24.686;2022-11-14T02:54:58;100530.00;;;6.11;100.00
7668;BME280;3876;42.204;24.686;2022-11-14T02:57:25;100505.31;;;5.98;100.00
7668;BME280;3876;42.204;24.686;2022-11-14T02:59:52;100517.22;;;6.02;100.00
7668;BME280;3876;42.204;24.686;2022-11-14T03:02:18;100524.88;;;6.05;100.00
7668;BME280;3876;42.204;24.686;2022-11-14T03:04:45;100533.31;;;6.01;100.00
7668;BME280;3876;42.204;24.686;2022-11-14T03:07:12;100528.22;;;5.98;100.00
7668;BME280;3876;42.204;24.686;2022-11-14T03:09:39;100529.06;;;5.99;100.00
7668;BME280;3876;42.204;24.686;2022-11-14T03:12:07;100534.94;;;5.87;100.00
7668;BME280;3876;42.204;24.686;2022-11-14T03:14:34;100535.75;;;5.85;100.00
7668;BME280;3876;42.204;24.686;2022-11-14T03:17:01;100529.69;;;5.72;100.00
7668;BME280;3876;42.204;24.686;2022-11-14T03:19:28;100531.34;;;5.64;100.00
7668;BME280;3876;42.204;24.686;2022-11-14T03:21:54;100539.75;;;5.57;100.00
7668;BME280;3876;42.204;24.686;2022-11-14T03:24:21;100538.84;;;5.50;100.00
7668;BME280;3876;42.204;24.686;2022-11-14T03:26:48;100532.00;;;5.43;100.00
7668;BME280;3876;42.204;24.686;2022-11-14T03:29:16;100532.00;;;5.43;100.00
7668;BME280;3876;42.204;24.686;2022-11-14T03:31:43;100534.56;;;5.45;100.00
7668;BME280;3876;42.204;24.686;2022-11-14T03:34:10;100537.13;;;5.45;100.00
7668;BME280;3876;42.204;24.686;2022-11-14T03:36:37;100536.28;;;5.46;100.00
7668;BME280;3876;42.204;24.686;2022-11-14T03:39:04;100537.09;;;5.42;100.00
7668;BME280;3876;42.204;24.686;2022-11-14T03:41:31;100534.50;;;5.37;100.00
7668;BME280;3876;42.204;24.686;2022-11-14T03:43:58;100541.25;;;5.34;100.00
7668;BME280;3876;42.204;24.686;2022-11-14T03:46:26;100527.66;;;5.32;100.00
7668;BME280;3876;42.204;24.686;2022-11-14T03:48:53;100534.44;;;5.29;100.00
7668;BME280;3876;42.204;24.686;2022-11-14T03:51:20;100537.81;;;5.28;100.00
7668;BME280;3876;42.204;24.686;2022-11-14T03:53:47;100529.38;;;5.33;100.00
7668;BME280;3876;42.204;24.686;2022-11-14T03:56:14;100535.31;;;5.33;100.00
7668;BME280;3876;42.204;24.686;2022-11-14T03:58:40;100526.81;;;5.31;100.00
7668;BME280;3876;42.204;24.686;2022-11-14T04:01:07;100508.97;;;5.25;100.00
7668;BME280;3876;42.204;24.686;2022-11-14T04:03:36;100529.44;;;5.39;100.00
7668;BME280;3876;42.204;24.686;2022-11-14T04:06:03;100531.13;;;5.40;100.00
7668;BME280;3876;42.204;24.686;2022-11-14T04:08:30;100526.88;;;5.37;100.00
7668;BME280;3876;42.204;24.686;2022-11-14T04:10:56;100515.78;;;5.30;100.00
7668;BME280;3876;42.204;24.686;2022-11-14T04:13:23;100522.63;;;5.35;100.00
7668;BME280;3876;42.204;24.686;2022-11-14T04:15:54;100531.09;;;5.37;100.00
7668;BME280;3876;42.204;24.686;2022-11-14T04:18:21;100526.03;;;5.40;100.00
7668;BME280;3876;42.204;24.686;2022-11-14T04:20:49;100525.22;;;5.42;100.00
7668;BME280;3876;42.204;24.686;2022-11-14T04:23:16;100527.78;;;5.47;100.00
7668;BME280;3876;42.204;24.686;2022-11-14T04:25:44;100527.78;;;5.47;100.00
7668;BME280;3876;42.204;24.686;2022-11-14T04:28:11;100515.75;;;5.27;100.00
7668;BME280;3876;42.204;24.686;2022-11-14T04:30:38;100535.38;;;5.39;100.00
7668;BME280;3876;42.204;24.686;2022-11-14T04:33:05;100515.75;;;5.27;100.00
7668;BME280;3876;42.204;24.686;2022-11-14T04:35:32;100539.59;;;5.36;100.00
7668;BME280;3876;42.204;24.686;2022-11-14T04:38:00;100529.44;;;5.39;100.00
7668;BME280;3876;42.204;24.686;2022-11-14T04:40:27;100525.97;;;5.34;100.00
7668;BME280;3876;42.204;24.686;2022-11-14T04:42:54;100523.44;;;5.34;100.00
7668;BME280;3876;42.204;24.686;2022-11-14T04:45:20;100525.97;;;5.30;100.00
7668;BME280;3876;42.204;24.686;2022-11-14T04:47:47;100527.69;;;5.33;100.00
7668;BME280;3876;42.204;24.686;2022-11-14T04:50:14;100524.31;;;5.33;100.00
7668;BME280;3876;42.204;24.686;2022-11-14T04:52:41;100532.75;;;5.32;100.00
7668;BME280;3876;42.204;24.686;2022-11-14T04:55:09;100541.25;;;5.34;100.00
7668;BME280;3876;42.204;24.686;2022-11-14T04:57:36;100540.41;;;5.35;100.00
7668;BME280;3876;42.204;24.686;2022-11-14T05:00:03;100542.06;;;5.29;100.00
7668;BME280;3876;42.204;24.686;2022-11-14T05:02:32;100547.16;;;5.31;100.00
7668;BME280;3876;42.204;24.686;2022-11-14T05:04:59;100533.53;;;5.24;100.00
7668;BME280;3876;42.204;24.686;2022-11-14T05:07:26;100545.41;;;5.27;100.00
7668;BME280;3876;42.204;24.686;2022-11-14T05:09:53;100544.59;;;5.26;100.00
7668;BME280;3876;42.204;24.686;2022-11-14T05:12:21;100557.31;;;5.26;100.00
7668;BME280;3876;42.204;24.686;2022-11-14T05:14:48;100564.06;;;5.27;100.00
7668;BME280;3876;42.204;24.686;2022-11-14T05:17:14;100563.19;;;5.24;100.00
7668;BME280;3876;42.204;24.686;2022-11-14T05:19:41;100558.00;;;5.13;100.00
7668;BME280;3876;42.204;24.686;2022-11-14T05:22:08;100567.25;;;5.08;100.00
7668;BME280;3876;42.204;24.686;2022-11-14T05:24:35;100564.72;;;5.08;100.00
7668;BME280;3876;42.204;24.686;2022-11-14T05:27:01;100565.59;;;5.10;100.00
7668;BME280;3876;42.204;24.686;2022-11-14T05:29:30;100569.84;;;5.11;100.00
7668;BME280;3876;42.204;24.686;2022-11-14T05:31:56;100581.75;;;5.15;100.00
7668;BME280;3876;42.204;24.686;2022-11-14T05:34:23;100574.97;;;5.16;100.00
7668;BME280;3876;42.204;24.686;2022-11-14T05:36:50;100559.63;;;5.08;100.00
7668;BME280;3876;42.204;24.686;2022-11-14T05:39:17;100570.75;;;5.16;100.00
7668;BME280;3876;42.204;24.686;2022-11-14T05:41:44;100573.25;;;5.13;100.00
7668;BME280;3876;42.204;24.686;2022-11-14T05:44:12;100585.13;;;5.14;100.00
7668;BME280;3876;42.204;24.686;2022-11-14T05:46:40;100576.66;;;5.15;100.00
7668;BME280;3876;42.204;24.686;2022-11-14T05:49:07;100585.16;;;5.20;100.00
7668;BME280;3876;42.204;24.686;2022-11-14T05:51:34;100574.19;;;5.21;100.00
7668;BME280;3876;42.204;24.686;2022-11-14T05:54:01;100585.28;;;5.29;100.00
7668;BME280;3876;42.204;24.686;2022-11-14T05:56:28;100585.25;;;5.26;100.00
7668;BME280;3876;42.204;24.686;2022-11-14T05:58:54;100581.88;;;5.30;100.00
7668;BME280;3876;42.204;24.686;2022-11-14T06:01:21;100585.31;;;5.33;100.00
7668;BME280;3876;42.204;24.686;2022-11-14T06:03:49;100585.31;;;5.33;100.00
7668;BME280;3876;42.204;24.686;2022-11-14T06:06:18;100585.31;;;5.33;100.00
7668;BME280;3876;42.204;24.686;2022-11-14T06:08:45;100587.03;;;5.35;100.00
7668;BME280;3876;42.204;24.686;2022-11-14T06:11:16;100581.91;;;5.34;100.00
7668;BME280;3876;42.204;24.686;2022-11-14T06:13:43;100580.28;;;5.39;100.00
7668;BME280;3876;42.204;24.686;2022-11-14T06:16:11;100579.50;;;5.46;100.00
7668;BME280;3876;42.204;24.686;2022-11-14T06:18:38;100576.97;;;5.46;100.00
7668;BME280;3876;42.204;24.686;2022-11-14T06:21:09;100582.06;;;5.46;100.00
7668;BME280;3876;42.204;24.686;2022-11-14T06:23:37;100588.81;;;5.44;100.00
7668;BME280;3876;42.204;24.686;2022-11-14T06:26:08;100588.03;;;5.49;100.00
7668;BME280;3876;42.204;24.686;2022-11-14T06:28:37;100588.06;;;5.54;100.00
7668;BME280;3876;42.204;24.686;2022-11-14T06:31:04;100590.63;;;5.57;100.00
7668;BME280;3876;42.204;24.686;2022-11-14T06:33:33;100589.75;;;5.52;100.00
7668;BME280;3876;42.204;24.686;2022-11-14T06:36:03;100590.59;;;5.54;100.00
7668;BME280;3876;42.204;24.686;2022-11-14T06:38:32;100584.69;;;5.59;100.00
7668;BME280;3876;42.204;24.686;2022-11-14T06:41:03;100583.06;;;5.64;100.00
7668;BME280;3876;42.204;24.686;2022-11-14T06:43:33;100583.91;;;5.66;100.00
7668;BME280;3876;42.204;24.686;2022-11-14T06:46:01;100582.25;;;5.70;100.00
7668;BME280;3876;42.204;24.686;2022-11-14T06:48:28;100583.06;;;5.66;100.00
7668;BME280;3876;42.204;24.686;2022-11-14T06:50:56;100584.69;;;5.56;100.00
7668;BME280;3876;42.204;24.686;2022-11-14T06:53:23;100591.44;;;5.56;100.00
7668;BME280;3876;42.204;24.686;2022-11-14T06:55:56;100583.88;;;5.59;100.00
7668;BME280;3876;42.204;24.686;2022-11-14T06:58:25;100559.16;;;5.47;100.00
7668;BME280;3876;42.204;24.686;2022-11-14T07:00:52;100579.63;;;5.62;100.00
7668;BME280;3876;42.204;24.686;2022-11-14T07:03:18;100583.03;;;5.58;100.00
7668;BME280;3876;42.204;24.686;2022-11-14T07:05:45;100580.44;;;5.57;100.00
7668;BME280;3876;42.204;24.686;2022-11-14T07:08:12;100580.44;;;5.57;100.00
7668;BME280;3876;42.204;24.686;2022-11-14T07:10:39;100580.50;;;5.63;100.00
7668;BME280;3876;42.204;24.686;2022-11-14T07:13:07;100583.94;;;5.68;100.00
7668;BME280;3876;42.204;24.686;2022-11-14T07:15:36;100549.06;;;5.55;100.00
7668;BME280;3876;42.204;24.686;2022-11-14T07:18:03;100582.31;;;5.76;100.00
7668;BME280;3876;42.204;24.686;2022-11-14T07:20:29;100587.47;;;5.85;100.00
7668;BME280;3876;42.204;24.686;2022-11-14T07:22:56;100588.44;;;5.96;100.00
7668;BME280;3876;42.204;24.686;2022-11-14T07:25:23;100590.19;;;6.03;100.00
7668;BME280;3876;42.204;24.686;2022-11-14T07:27:50;100578.38;;;6.10;100.00
7668;BME280;3876;42.204;24.686;2022-11-14T07:30:18;100578.38;;;6.10;100.00
7668;BME280;3876;42.204;24.686;2022-11-14T07:32:45;100584.34;;;6.16;100.00
7668;BME280;3876;42.204;24.686;2022-11-14T07:35:12;100569.13;;;6.28;100.00
7668;BME280;3876;42.204;24.686;2022-11-14T07:37:39;100556.41;;;6.28;100.00
7668;BME280;3876;42.204;24.686;2022-11-14T07:40:07;100565.84;;;6.48;100.00
7668;BME280;3876;42.204;24.686;2022-11-14T07:42:35;100566.75;;;6.59;100.00
7668;BME280;3876;42.204;24.686;2022-11-14T07:45:01;100560.75;;;6.48;100.00
7668;BME280;3876;42.204;24.686;2022-11-14T07:47:29;100569.28;;;6.57;100.00
7668;BME280;3876;42.204;24.686;2022-11-14T07:49:56;100565.06;;;6.61;100.00
7668;BME280;3876;42.204;24.686;2022-11-14T07:52:23;100562.56;;;6.74;100.00
7668;BME280;3876;42.204;24.686;2022-11-14T07:54:50;100559.19;;;6.86;100.00
7668;BME280;3876;42.204;24.686;2022-11-14T07:57:17;100543.94;;;6.92;100.00
7668;BME280;3876;42.204;24.686;2022-11-14T07:59:43;100549.91;;;6.97;100.00
7668;BME280;3876;42.204;24.686;2022-11-14T08:02:12;100548.22;;;7.04;100.00
7668;BME280;3876;42.204;24.686;2022-11-14T08:04:41;100549.09;;;7.10;100.00
7668;BME280;3876;42.204;24.686;2022-11-14T08:07:08;100552.50;;;7.21;100.00
7668;BME280;3876;42.204;24.686;2022-11-14T08:09:35;100549.13;;;7.28;100.00
7668;BME280;3876;42.204;24.686;2022-11-14T08:12:01;100549.94;;;7.33;100.00
7668;BME280;3876;42.204;24.686;2022-11-14T08:14:28;100542.34;;;7.39;100.00
7668;BME280;3876;42.204;24.686;2022-11-14T08:16:55;100538.91;;;7.40;100.00
7668;BME280;3876;42.204;24.686;2022-11-14T08:19:22;100559.34;;;7.66;100.00
7668;BME280;3876;42.204;24.686;2022-11-14T08:21:50;100552.53;;;7.80;100.00
7668;BME280;3876;42.204;24.686;2022-11-14T08:24:17;100555.94;;;7.87;100.00
7668;BME280;3876;42.204;24.686;2022-11-14T08:26:45;100550.84;;;7.78;100.00
7668;BME280;3876;42.204;24.686;2022-11-14T08:29:11;100552.53;;;7.77;100.00
7668;BME280;3876;42.204;24.686;2022-11-14T08:31:38;100554.22;;;7.86;100.00
7668;BME280;3876;42.204;24.686;2022-11-14T08:34:05;100549.13;;;7.86;100.00
7668;BME280;3876;42.204;24.686;2022-11-14T08:36:32;100558.47;;;8.10;100.00
7668;BME280;3876;42.204;24.686;2022-11-14T08:39:00;100557.59;;;8.12;100.00
7668;BME280;3876;42.204;24.686;2022-11-14T08:41:27;100555.88;;;8.22;100.00
7668;BME280;3876;42.204;24.686;2022-11-14T08:43:53;100556.72;;;8.34;100.00
7668;BME280;3876;42.204;24.686;2022-11-14T08:46:20;100555.03;;;8.42;100.00
7668;BME280;3876;42.204;24.686;2022-11-14T08:48:48;100558.41;;;8.48;100.00
7668;BME280;3876;42.204;24.686;2022-11-14T08:51:21;100551.56;;;8.53;100.00
7668;BME280;3876;42.204;24.686;2022-11-14T08:53:48;100544.72;;;8.58;100.00
7668;BME280;3876;42.204;24.686;2022-11-14T08:56:18;100534.47;;;8.67;100.00
7668;BME280;3876;42.204;24.686;2022-11-14T08:58:44;100535.19;;;8.93;100.00
7668;BME280;3876;42.204;24.686;2022-11-14T09:01:11;100537.63;;;9.13;100.00
7668;BME280;3876;42.204;24.686;2022-11-14T09:03:38;100531.53;;;9.33;100.00
7668;BME280;3876;42.204;24.686;2022-11-14T09:06:05;100533.97;;;9.47;100.00
7668;BME280;3876;42.204;24.686;2022-11-14T09:08:32;100535.59;;;9.57;100.00
7668;BME280;3876;42.204;24.686;2022-11-14T09:10:59;100529.50;;;9.75;100.00
7668;BME280;3876;42.204;24.686;2022-11-14T09:13:30;100526.75;;;9.94;100.00
7668;BME280;3876;42.204;24.686;2022-11-14T09:15:57;100531.03;;;9.94;100.00
7668;BME280;3876;42.204;24.686;2022-11-14T09:18:24;100527.53;;;9.99;100.00
7668;BME280;3876;42.204;24.686;2022-11-14T09:20:51;100526.63;;;10.05;100.00
7668;BME280;3876;42.204;24.686;2022-11-14T09:23:18;100522.22;;;10.22;100.00
7668;BME280;3876;42.204;24.686;2022-11-14T09:25:45;100516.13;;;10.32;100.00
7668;BME280;3876;42.204;24.686;2022-11-14T09:28:11;100517.69;;;10.45;100.00
7668;BME280;3876;42.204;24.686;2022-11-14T09:30:39;100510.66;;;10.61;100.00
7668;BME280;3876;42.204;24.686;2022-11-14T09:33:07;100512.28;;;10.67;100.00
7668;BME280;3876;42.204;24.686;2022-11-14T09:35:33;100502.75;;;10.78;100.00
7668;BME280;3876;42.204;24.686;2022-11-14T09:38:03;100507.59;;;10.96;100.00
7668;BME280;3876;42.204;24.686;2022-11-14T09:40:38;100497.16;;;11.11;100.00
7668;BME280;3876;42.204;24.686;2022-11-14T09:43:18;100497.81;;;11.24;100.00
7668;BME280;3876;42.204;24.686;2022-11-14T09:45:53;100480.44;;;11.38;100.00
7668;BME280;3876;42.204;24.686;2022-11-14T09:48:21;100478.66;;;11.43;100.00
7668;BME280;3876;42.204;24.686;2022-11-14T09:51:03;100485.25;;;11.59;100.00
7668;BME280;3876;42.204;24.686;2022-11-14T09:53:33;100486.91;;;11.60;100.00
7668;BME280;3876;42.204;24.686;2022-11-14T09:56:03;100482.56;;;11.64;100.00
7668;BME280;3876;42.204;24.686;2022-11-14T09:58:30;100484.03;;;11.80;100.00
7668;BME280;3876;42.204;24.686;2022-11-14T10:01:02;100478.94;;;11.77;100.00
7668;BME280;3876;42.204;24.686;2022-11-14T10:03:40;100472.78;;;11.87;100.00
7668;BME280;3876;42.204;24.686;2022-11-14T10:06:19;100473.44;;;11.98;100.00
7668;BME280;3876;42.204;24.686;2022-11-14T10:08:59;100466.47;;;12.04;100.00
7668;BME280;3876;42.204;24.686;2022-11-14T10:11:32;100461.28;;;12.06;100.00
7668;BME280;3876;42.204;24.686;2022-11-14T10:17:27;100448.47;;;12.04;100.00
7668;BME280;3876;42.204;24.686;2022-11-14T10:20:10;100442.28;;;12.13;100.00
7668;BME280;3876;42.204;24.686;2022-11-14T10:22:51;100438.78;;;12.17;100.00
7668;BME280;3876;42.204;24.686;2022-11-14T10:25:24;100419.28;;;12.07;100.00
7668;BME280;3876;42.204;24.686;2022-11-14T10:28:02;100436.84;;;12.28;100.00
7668;BME280;3876;42.204;24.686;2022-11-14T10:30:38;100426.66;;;12.24;100.00
7668;BME280;3876;42.204;24.686;2022-11-14T10:33:22;100431.63;;;12.31;100.00
7668;BME280;3876;42.204;24.686;2022-11-14T10:35:57;100431.53;;;12.36;99.82
7668;BME280;3876;42.204;24.686;2022-11-14T10:38:29;100431.53;;;12.37;99.29
7668;BME280;3876;42.204;24.686;2022-11-14T10:41:00;100430.59;;;12.40;100.00
7668;BME280;3876;42.204;24.686;2022-11-14T10:43:33;100425.19;;;12.52;98.85
7668;BME280;3876;42.204;24.686;2022-11-14T10:46:04;100411.41;;;12.54;98.35
7668;BME280;3876;42.204;24.686;2022-11-14T10:48:38;100414.69;;;12.61;99.20
7668;BME280;3876;42.204;24.686;2022-11-14T10:51:11;100410.19;;;12.71;98.48
7668;BME280;3876;42.204;24.686;2022-11-14T10:53:49;100415.25;;;12.74;97.71
7668;BME280;3876;42.204;24.686;2022-11-14T10:56:17;100408.22;;;12.82;97.96
7668;BME280;3876;42.204;24.686;2022-11-14T10:58:47;100406.22;;;12.93;98.38
7668;BME280;3876;42.204;24.686;2022-11-14T11:01:35;100400.19;;;12.95;96.63
7668;BME280;3876;42.204;24.686;2022-11-14T11:04:18;100390.72;;;12.96;95.47
7668;BME280;3876;42.204;24.686;2022-11-14T11:06:46;100405.13;;;13.03;95.32
7668;BME280;3876;42.204;24.686;2022-11-14T11:09:15;100399.84;;;13.10;97.16
7668;BME280;3876;42.204;24.686;2022-11-14T11:12:01;100390.09;;;13.23;98.46
7668;BME280;3876;42.204;24.686;2022-11-14T11:14:28;100395.00;;;13.32;97.61
7668;BME280;3876;42.204;24.686;2022-11-14T11:17:15;100386.22;;;13.39;98.32
7668;BME280;3876;42.204;24.686;2022-11-14T11:19:46;100387.84;;;13.43;97.17
7668;BME280;3876;42.204;24.686;2022-11-14T11:22:34;100372.47;;;13.40;95.50
7668;BME280;3876;42.204;24.686;2022-11-14T11:25:02;100368.31;;;13.35;95.85
7668;BME280;3876;42.204;24.686;2022-11-14T11:27:29;100371.34;;;13.50;96.90
7668;BME280;3876;42.204;24.686;2022-11-14T11:30:07;100364.25;;;13.58;97.37
7668;BME280;3876;42.204;24.686;2022-11-14T11:32:34;100359.06;;;13.60;96.59
7668;BME280;3876;42.204;24.686;2022-11-14T11:35:09;100361.25;;;13.74;96.92
7668;BME280;3876;42.204;24.686;2022-11-14T11:37:41;100338.13;;;13.71;95.69
7668;BME280;3876;42.204;24.686;2022-11-14T11:40:15;100348.19;;;13.80;94.77
7668;BME280;3876;42.204;24.686;2022-11-14T11:42:46;100344.72;;;13.81;95.58
7668;BME280;3876;42.204;24.686;2022-11-14T11:45:15;100333.72;;;13.76;94.87
7668;BME280;3876;42.204;24.686;2022-11-14T11:47:47;100342.72;;;13.90;95.85
7668;BME280;3876;42.204;24.686;2022-11-14T11:50:19;100328.69;;;14.00;95.49
7668;BME280;3876;42.204;24.686;2022-11-14T11:52:50;100332.00;;;14.05;94.07
7668;BME280;3876;42.204;24.686;2022-11-14T11:55:20;100329.34;;;14.07;93.74
7668;BME280;3876;42.204;24.686;2022-11-14T11:57:55;100330.22;;;14.07;93.76
7668;BME280;3876;42.204;24.686;2022-11-14T12:00:23;100331.84;;;14.10;93.49
7668;BME280;3876;42.204;24.686;2022-11-14T12:02:51;100322.41;;;14.09;93.19
7668;BME280;3876;42.204;24.686;2022-11-14T12:05:25;100324.09;;;14.10;93.22
7668;BME280;3876;42.204;24.686;2022-11-14T12:07:58;100319.72;;;14.12;93.01
7668;BME280;3876;42.204;24.686;2022-11-14T12:10:30;100317.81;;;14.18;91.34
7668;BME280;3876;42.204;24.686;2022-11-14T12:16:22;100295.72;;;14.11;92.09
7668;BME280;3876;42.204;24.686;2022-11-14T12:19:22;100320.09;;;14.29;92.62
7668;BME280;3876;42.204;24.686;2022-11-14T12:22:27;100318.38;;;14.28;91.36
7668;BME280;3876;42.204;24.686;2022-11-14T12:25:16;100318.31;;;14.31;92.46
7668;BME280;3876;42.204;24.686;2022-11-14T12:27:57;100312.19;;;14.35;91.75
7668;BME280;3876;42.204;24.686;2022-11-14T12:30:27;100314.75;;;14.35;91.36
7668;BME280;3876;42.204;24.686;2022-11-14T12:32:59;100312.25;;;14.32;91.10
7668;BME280;3876;42.204;24.686;2022-11-14T12:35:33;100311.22;;;14.39;91.09
7668;BME280;3876;42.204;24.686;2022-11-14T12:38:04;100306.03;;;14.39;91.39
7668;BME280;3876;42.204;24.686;2022-11-14T12:40:33;100303.88;;;14.53;91.75
7668;BME280;3876;42.204;24.686;2022-11-14T12:43:02;100302.97;;;14.54;91.15
7668;BME280;3876;42.204;24.686;2022-11-14T12:45:57;100309.50;;;14.66;89.94
7668;BME280;3876;42.204;24.686;2022-11-14T12:48:30;100308.75;;;14.62;90.03
7668;BME280;3876;42.204;24.686;2022-11-14T12:50:58;100301.97;;;14.58;90.22
7668;BME280;3876;42.204;24.686;2022-11-14T12:53:45;100301.84;;;14.63;90.22
7668;BME280;3876;42.204;24.686;2022-11-14T12:56:47;100293.94;;;14.67;89.69
7668;BME280;3876;42.204;24.686;2022-11-14T12:59:27;100281.50;;;14.54;89.67
7668;BME280;3876;42.204;24.686;2022-11-14T13:02:15;100302.31;;;14.74;90.75
7668;BME280;3876;42.204;24.686;2022-11-14T13:04:58;100301.31;;;14.80;90.06
7668;BME280;3876;42.204;24.686;2022-11-14T13:07:39;100311.44;;;14.86;88.74
7668;BME280;3876;42.204;24.686;2022-11-14T13:10:22;100303.69;;;14.86;87.99
7668;BME280;3876;42.204;24.686;2022-11-14T13:13:05;100297.88;;;14.79;88.28
7668;BME280;3876;42.204;24.686;2022-11-14T13:15:51;100287.59;;;14.78;88.63
7668;BME280;3876;42.204;24.686;2022-11-14T13:18:36;100297.72;;;14.84;88.38
7668;BME280;3876;42.204;24.686;2022-11-14T13:21:33;100295.72;;;14.92;89.00